sensor_id;sensor_type;location;lat;lon;timestamp;temperature;humidity
73509;SHT30;61750;55.036;73.312;2022-12-18T00:03:10;-15.96;81.12
73509;SHT30;61750;55.036;73.312;2022-12-18T00:05:50;-16.02;81.10
73509;SHT30;61750;55.036;73.312;2022-12-18T00:08:20;-15.99;81.34
73509;SHT30;61750;55.036;73.312;2022-12-18T00:10:51;-15.97;81.33
73509;SHT30;61750;55.036;73.312;2022-12-18T00:13:27;-15.97;81.15
73509;SHT30;61750;55.036;73.312;2022-12-18T00:15:53;-16.02;80.96
73509;SHT30;61750;55.036;73.312;2022-12-18T00:18:24;-16.05;81.01
73509;SHT30;61750;55.036;73.312;2022-12-18T00:20:50;-16.09;81.03
73509;SHT30;61750;55.036;73.312;2022-12-18T00:23:16;-16.12;80.96
73509;SHT30;61750;55.036;73.312;2022-12-18T00:25:42;-16.13;80.93
73509;SHT30;61750;55.036;73.312;2022-12-18T00:28:08;-16.14;80.83
73509;SHT30;61750;55.036;73.312;2022-12-18T00:30:49;-16.20;80.82
73509;SHT30;61750;55.036;73.312;2022-12-18T00:33:27;-16.17;80.88
73509;SHT30;61750;55.036;73.312;2022-12-18T00:35:53;-16.17;80.78
73509;SHT30;61750;55.036;73.312;2022-12-18T00:38:19;-16.20;80.77
73509;SHT30;61750;55.036;73.312;2022-12-18T00:40:49;-16.21;80.88
73509;SHT30;61750;55.036;73.312;2022-12-18T00:43:15;-16.23;80.83
73509;SHT30;61750;55.036;73.312;2022-12-18T00:45:49;-16.27;80.83
73509;SHT30;61750;55.036;73.312;2022-12-18T00:48:20;-16.28;80.86
73509;SHT30;61750;55.036;73.312;2022-12-18T00:50:50;-16.36;80.92
73509;SHT30;61750;55.036;73.312;2022-12-18T00:53:20;-16.40;80.91
73509;SHT30;61750;55.036;73.312;2022-12-18T00:55:48;-16.48;80.67
73509;SHT30;61750;55.036;73.312;2022-12-18T01:02:43;-16.61;80.47
73509;SHT30;61750;55.036;73.312;2022-12-18T01:05:49;-16.68;80.55
73509;SHT30;61750;55.036;73.312;2022-12-18T01:08:17;-16.68;80.69
73509;SHT30;61750;55.036;73.312;2022-12-18T01:10:49;-16.74;80.79
73509;SHT30;61750;55.036;73.312;2022-12-18T01:13:18;-16.77;80.68
73509;SHT30;61750;55.036;73.312;2022-12-18T01:15:50;-16.77;80.76
73509;SHT30;61750;55.036;73.312;2022-12-18T01:18:16;-16.77;80.53
73509;SHT30;61750;55.036;73.312;2022-12-18T01:20:52;-16.77;80.71
73509;SHT30;61750;55.036;73.312;2022-12-18T01:23:18;-16.77;80.84
73509;SHT30;61750;55.036;73.312;2022-12-18T01:25:44;-16.87;80.33
73509;SHT30;61750;55.036;73.312;2022-12-18T01:28:09;-16.85;80.43
73509;SHT30;61750;55.036;73.312;2022-12-18T01:30:49;-16.84;80.73
73509;SHT30;61750;55.036;73.312;2022-12-18T01:33:15;-16.88;80.68
73509;SHT30;61750;55.036;73.312;2022-12-18T01:35:49;-16.84;81.17
73509;SHT30;61750;55.036;73.312;2022-12-18T01:38:15;-16.84;81.17
73509;SHT30;61750;55.036;73.312;2022-12-18T01:40:49;-16.87;80.98
73509;SHT30;61750;55.036;73.312;2022-12-18T01:43:22;-16.87;81.15
73509;SHT30;61750;55.036;73.312;2022-12-18T01:45:49;-16.87;81.01
73509;SHT30;61750;55.036;73.312;2022-12-18T01:48:15;-16.80;81.34
73509;SHT30;61750;55.036;73.312;2022-12-18T01:50:49;-16.71;81.66
73509;SHT30;61750;55.036;73.312;2022-12-18T01:53:17;-16.68;81.61
73509;SHT30;61750;55.036;73.312;2022-12-18T01:55:56;-16.71;81.41
73509;SHT30;61750;55.036;73.312;2022-12-18T02:02:42;-16.72;81.27
73509;SHT30;61750;55.036;73.312;2022-12-18T02:05:09;-16.74;81.23
73509;SHT30;61750;55.036;73.312;2022-12-18T02:07:59;-16.71;81.56
73509;SHT30;61750;55.036;73.312;2022-12-18T02:16:15;-16.60;81.64
73509;SHT30;61750;55.036;73.312;2022-12-18T02:26:01;-16.62;81.57
73509;SHT30;61750;55.036;73.312;2022-12-18T02:28:38;-16.64;81.45
73509;SHT30;61750;55.036;73.312;2022-12-18T02:31:07;-16.65;81.54
73509;SHT30;61750;55.036;73.312;2022-12-18T02:33:35;-16.65;81.34
73509;SHT30;61750;55.036;73.312;2022-12-18T02:36:01;-16.62;81.60
73509;SHT30;61750;55.036;73.312;2022-12-18T02:38:34;-16.58;81.84
73509;SHT30;61750;55.036;73.312;2022-12-18T02:41:07;-16.52;81.74
73509;SHT30;61750;55.036;73.312;2022-12-18T02:43:34;-16.48;81.76
73509;SHT30;61750;55.036;73.312;2022-12-18T02:46:26;-16.42;81.84
73509;SHT30;61750;55.036;73.312;2022-12-18T02:49:06;-16.38;81.80
73509;SHT30;61750;55.036;73.312;2022-12-18T02:51:39;-16.37;81.69
73509;SHT30;61750;55.036;73.312;2022-12-18T02:54:09;-16.38;81.75
73509;SHT30;61750;55.036;73.312;2022-12-18T02:56:38;-16.38;81.78
73509;SHT30;61750;55.036;73.312;2022-12-18T02:59:09;-16.38;81.65
73509;SHT30;61750;55.036;73.312;2022-12-18T03:02:35;-16.47;81.28
73509;SHT30;61750;55.036;73.312;2022-12-18T03:04:49;-16.51;81.12
73509;SHT30;61750;55.036;73.312;2022-12-18T03:07:21;-16.54;81.13
73509;SHT30;61750;55.036;73.312;2022-12-18T03:09:52;-16.61;80.96
73509;SHT30;61750;55.036;73.312;2022-12-18T03:12:24;-16.60;80.90
73509;SHT30;61750;55.036;73.312;2022-12-18T03:17:36;-16.64;80.79
73509;SHT30;61750;55.036;73.312;2022-12-18T03:20:49;-16.69;80.42
73509;SHT30;61750;55.036;73.312;2022-12-18T03:23:26;-16.68;80.71
73509;SHT30;61750;55.036;73.312;2022-12-18T03:25:54;-16.71;80.77
73509;SHT30;61750;55.036;73.312;2022-12-18T03:28:23;-16.74;80.46
73509;SHT30;61750;55.036;73.312;2022-12-18T03:30:57;-16.78;80.39
73509;SHT30;61750;55.036;73.312;2022-12-18T03:33:52;-16.78;80.52
73509;SHT30;61750;55.036;73.312;2022-12-18T03:36:17;-16.78;80.63
73509;SHT30;61750;55.036;73.312;2022-12-18T03:38:43;-16.78;80.58
73509;SHT30;61750;55.036;73.312;2022-12-18T03:41:14;-16.75;80.71
73509;SHT30;61750;55.036;73.312;2022-12-18T03:56:00;-16.55;80.21
73509;SHT30;61750;55.036;73.312;2022-12-18T03:58:33;-16.52;80.15
73509;SHT30;61750;55.036;73.312;2022-12-18T04:01:13;-16.48;79.98
73509;SHT30;61750;55.036;73.312;2022-12-18T04:03:42;-16.42;80.06
73509;SHT30;61750;55.036;73.312;2022-12-18T04:06:12;-16.42;79.83
73509;SHT30;61750;55.036;73.312;2022-12-18T04:08:41;-16.37;80.06
73509;SHT30;61750;55.036;73.312;2022-12-18T04:11:11;-16.30;80.14
73509;SHT30;61750;55.036;73.312;2022-12-18T04:13:38;-16.23;80.12
73509;SHT30;61750;55.036;73.312;2022-12-18T04:16:14;-16.13;80.02
73509;SHT30;61750;55.036;73.312;2022-12-18T04:18:44;-16.02;79.95
73509;SHT30;61750;55.036;73.312;2022-12-18T04:21:14;-15.93;80.01
73509;SHT30;61750;55.036;73.312;2022-12-18T04:23:46;-15.83;80.04
73509;SHT30;61750;55.036;73.312;2022-12-18T04:26:18;-15.78;80.05
73509;SHT30;61750;55.036;73.312;2022-12-18T04:33:31;-15.63;80.31
73509;SHT30;61750;55.036;73.312;2022-12-18T04:36:03;-15.59;80.47
73509;SHT30;61750;55.036;73.312;2022-12-18T04:38:32;-15.52;80.50
73509;SHT30;61750;55.036;73.312;2022-12-18T04:41:08;-15.45;80.55
73509;SHT30;61750;55.036;73.312;2022-12-18T04:43:34;-15.37;80.49
73509;SHT30;61750;55.036;73.312;2022-12-18T04:46:04;-15.32;80.37
73509;SHT30;61750;55.036;73.312;2022-12-18T04:48:35;-15.28;80.30
73509;SHT30;61750;55.036;73.312;2022-12-18T04:51:59;-15.16;80.31
73509;SHT30;61750;55.036;73.312;2022-12-18T04:54:25;-15.04;80.41
73509;SHT30;61750;55.036;73.312;2022-12-18T04:56:54;-14.96;80.33
73509;SHT30;61750;55.036;73.312;2022-12-18T04:59:29;-14.90;80.28
73509;SHT30;61750;55.036;73.312;2022-12-18T05:01:55;-14.87;80.12
73509;SHT30;61750;55.036;73.312;2022-12-18T05:04:34;-14.79;80.12
73509;SHT30;61750;55.036;73.312;2022-12-18T05:07:00;-14.69;80.26
73509;SHT30;61750;55.036;73.312;2022-12-18T05:09:26;-14.61;80.15
73509;SHT30;61750;55.036;73.312;2022-12-18T05:11:53;-14.59;79.71
73509;SHT30;61750;55.036;73.312;2022-12-18T05:14:19;-14.55;79.76
73509;SHT30;61750;55.036;73.312;2022-12-18T05:16:47;-14.52;79.65
73509;SHT30;61750;55.036;73.312;2022-12-18T05:23:35;-14.46;79.50
73509;SHT30;61750;55.036;73.312;2022-12-18T05:26:04;-14.55;79.29
73509;SHT30;61750;55.036;73.312;2022-12-18T05:28:39;-14.46;79.58
73509;SHT30;61750;55.036;73.312;2022-12-18T05:31:10;-14.34;79.84
73509;SHT30;61750;55.036;73.312;2022-12-18T05:33:39;-14.31;79.54
73509;SHT30;61750;55.036;73.312;2022-12-18T05:36:09;-14.22;79.44
73509;SHT30;61750;55.036;73.312;2022-12-18T05:38:36;-14.10;79.33
73509;SHT30;61750;55.036;73.312;2022-12-18T05:41:02;-13.98;79.58
73509;SHT30;61750;55.036;73.312;2022-12-18T05:43:28;-13.91;79.58
73509;SHT30;61750;55.036;73.312;2022-12-18T05:45:54;-13.86;79.40
73509;SHT30;61750;55.036;73.312;2022-12-18T05:48:24;-13.78;79.45
73509;SHT30;61750;55.036;73.312;2022-12-18T05:50:52;-13.67;79.25
73509;SHT30;61750;55.036;73.312;2022-12-18T05:53:20;-13.77;78.57
73509;SHT30;61750;55.036;73.312;2022-12-18T05:55:54;-13.77;78.55
73509;SHT30;61750;55.036;73.312;2022-12-18T05:58:25;-13.74;78.45
73509;SHT30;61750;55.036;73.312;2022-12-18T06:01:05;-13.69;78.74
73509;SHT30;61750;55.036;73.312;2022-12-18T06:03:34;-13.59;78.79
73509;SHT30;61750;55.036;73.312;2022-12-18T06:06:00;-13.40;79.32
73509;SHT30;61750;55.036;73.312;2022-12-18T06:08:30;-13.28;79.16
73509;SHT30;61750;55.036;73.312;2022-12-18T06:10:59;-13.23;79.06
73509;SHT30;61750;55.036;73.312;2022-12-18T06:13:25;-13.05;79.14
73509;SHT30;61750;55.036;73.312;2022-12-18T06:15:54;-12.98;79.15
73509;SHT30;61750;55.036;73.312;2022-12-18T06:18:22;-12.89;79.00
73509;SHT30;61750;55.036;73.312;2022-12-18T06:24:08;-12.84;78.67
73509;SHT30;61750;55.036;73.312;2022-12-18T06:26:37;-12.83;78.63
73509;SHT30;61750;55.036;73.312;2022-12-18T06:29:03;-12.75;78.62
73509;SHT30;61750;55.036;73.312;2022-12-18T06:31:29;-12.68;78.90
73509;SHT30;61750;55.036;73.312;2022-12-18T06:33:55;-12.65;78.21
73509;SHT30;61750;55.036;73.312;2022-12-18T06:36:24;-12.65;78.28
73509;SHT30;61750;55.036;73.312;2022-12-18T06:38:50;-12.52;78.64
73509;SHT30;61750;55.036;73.312;2022-12-18T06:41:20;-12.49;78.32
73509;SHT30;61750;55.036;73.312;2022-12-18T06:43:48;-12.32;78.53
73509;SHT30;61750;55.036;73.312;2022-12-18T06:46:14;-12.12;78.36
73509;SHT30;61750;55.036;73.312;2022-12-18T06:48:41;-12.05;78.34
73509;SHT30;61750;55.036;73.312;2022-12-18T06:51:07;-11.95;78.21
73509;SHT30;61750;55.036;73.312;2022-12-18T06:53:35;-11.85;78.32
73509;SHT30;61750;55.036;73.312;2022-12-18T06:56:12;-11.71;78.21
73509;SHT30;61750;55.036;73.312;2022-12-18T06:58:38;-11.54;78.10
73509;SHT30;61750;55.036;73.312;2022-12-18T07:01:14;-11.45;77.76
73509;SHT30;61750;55.036;73.312;2022-12-18T07:03:41;-11.35;77.88
73509;SHT30;61750;55.036;73.312;2022-12-18T07:06:12;-11.44;77.44
73509;SHT30;61750;55.036;73.312;2022-12-18T07:08:42;-11.43;77.34
73509;SHT30;61750;55.036;73.312;2022-12-18T07:11:19;-11.41;77.37
73509;SHT30;61750;55.036;73.312;2022-12-18T07:13:51;-11.38;77.41
73509;SHT30;61750;55.036;73.312;2022-12-18T07:16:27;-11.35;77.66
73509;SHT30;61750;55.036;73.312;2022-12-18T07:18:56;-11.38;77.48
73509;SHT30;61750;55.036;73.312;2022-12-18T07:21:22;-11.33;77.86
73509;SHT30;61750;55.036;73.312;2022-12-18T07:23:51;-11.45;77.78
73509;SHT30;61750;55.036;73.312;2022-12-18T07:26:19;-11.43;78.21
73509;SHT30;61750;55.036;73.312;2022-12-18T07:28:54;-11.41;78.46
73509;SHT30;61750;55.036;73.312;2022-12-18T07:31:25;-11.43;78.72
73509;SHT30;61750;55.036;73.312;2022-12-18T07:33:54;-11.31;78.92
73509;SHT30;61750;55.036;73.312;2022-12-18T07:36:23;-11.27;78.60
73509;SHT30;61750;55.036;73.312;2022-12-18T07:38:49;-11.20;78.68
73509;SHT30;61750;55.036;73.312;2022-12-18T07:41:16;-11.01;79.04
73509;SHT30;61750;55.036;73.312;2022-12-18T07:43:47;-10.91;78.78
73509;SHT30;61750;55.036;73.312;2022-12-18T07:46:18;-10.79;78.51
73509;SHT30;61750;55.036;73.312;2022-12-18T07:48:44;-10.70;78.58
73509;SHT30;61750;55.036;73.312;2022-12-18T07:51:13;-10.65;78.90
73509;SHT30;61750;55.036;73.312;2022-12-18T07:53:45;-10.41;79.11
73509;SHT30;61750;55.036;73.312;2022-12-18T07:56:12;-10.24;78.25
73509;SHT30;61750;55.036;73.312;2022-12-18T07:58:41;-10.04;77.49
73509;SHT30;61750;55.036;73.312;2022-12-18T08:01:10;-9.97;76.78
73509;SHT30;61750;55.036;73.312;2022-12-18T08:03:37;-9.94;76.60
73509;SHT30;61750;55.036;73.312;2022-12-18T08:06:04;-9.87;76.43
73509;SHT30;61750;55.036;73.312;2022-12-18T08:08:31;-9.95;76.18
73509;SHT30;61750;55.036;73.312;2022-12-18T08:11:00;-9.94;76.06
73509;SHT30;61750;55.036;73.312;2022-12-18T08:13:27;-10.03;76.02
73509;SHT30;61750;55.036;73.312;2022-12-18T08:16:00;-9.95;76.41
73509;SHT30;61750;55.036;73.312;2022-12-18T08:18:27;-9.90;76.53
73509;SHT30;61750;55.036;73.312;2022-12-18T08:21:16;-9.89;76.05
73509;SHT30;61750;55.036;73.312;2022-12-18T08:23:43;-9.90;75.77
73509;SHT30;61750;55.036;73.312;2022-12-18T08:26:11;-9.89;75.85
73509;SHT30;61750;55.036;73.312;2022-12-18T08:28:38;-9.67;75.64
73509;SHT30;61750;55.036;73.312;2022-12-18T08:31:13;-9.50;74.74
73509;SHT30;61750;55.036;73.312;2022-12-18T08:33:49;-9.33;74.12
73509;SHT30;61750;55.036;73.312;2022-12-18T08:36:16;-9.23;73.55
73509;SHT30;61750;55.036;73.312;2022-12-18T08:38:45;-9.14;73.02
73509;SHT30;61750;55.036;73.312;2022-12-18T08:41:14;-8.95;72.56
73509;SHT30;61750;55.036;73.312;2022-12-18T08:43:43;-8.82;71.79
73509;SHT30;61750;55.036;73.312;2022-12-18T08:46:37;-8.62;71.29
73509;SHT30;61750;55.036;73.312;2022-12-18T08:49:04;-8.47;70.92
73509;SHT30;61750;55.036;73.312;2022-12-18T08:51:31;-8.36;70.35
73509;SHT30;61750;55.036;73.312;2022-12-18T08:54:00;-8.21;70.06
73509;SHT30;61750;55.036;73.312;2022-12-18T08:56:26;-8.20;70.24
73509;SHT30;61750;55.036;73.312;2022-12-18T08:58:53;-8.05;70.32
73509;SHT30;61750;55.036;73.312;2022-12-18T09:01:19;-7.87;69.33
73509;SHT30;61750;55.036;73.312;2022-12-18T09:03:45;-7.79;68.69
73509;SHT30;61750;55.036;73.312;2022-12-18T09:06:15;-7.71;68.00
73509;SHT30;61750;55.036;73.312;2022-12-18T09:08:42;-7.68;67.39
73509;SHT30;61750;55.036;73.312;2022-12-18T09:13:55;-7.65;66.63
73509;SHT30;61750;55.036;73.312;2022-12-18T09:16:22;-7.72;66.60
73509;SHT30;61750;55.036;73.312;2022-12-18T09:18:49;-7.74;66.47
73509;SHT30;61750;55.036;73.312;2022-12-18T09:21:17;-7.72;66.07
73509;SHT30;61750;55.036;73.312;2022-12-18T09:23:50;-8.06;66.28
73509;SHT30;61750;55.036;73.312;2022-12-18T09:26:16;-8.82;68.00
73509;SHT30;61750;55.036;73.312;2022-12-18T09:28:47;-9.22;69.74
73509;SHT30;61750;55.036;73.312;2022-12-18T09:31:26;-9.67;71.19
73509;SHT30;61750;55.036;73.312;2022-12-18T09:33:57;-9.85;72.82
73509;SHT30;61750;55.036;73.312;2022-12-18T09:36:23;-10.07;73.93
73509;SHT30;61750;55.036;73.312;2022-12-18T09:38:49;-10.25;74.37
73509;SHT30;61750;55.036;73.312;2022-12-18T09:43:53;-10.35;75.48
73509;SHT30;61750;55.036;73.312;2022-12-18T09:46:43;-10.48;75.69
73509;SHT30;61750;55.036;73.312;2022-12-18T09:49:13;-10.68;75.82
73509;SHT30;61750;55.036;73.312;2022-12-18T09:51:47;-10.70;76.62
73509;SHT30;61750;55.036;73.312;2022-12-18T09:54:30;-10.79;76.65
73509;SHT30;61750;55.036;73.312;2022-12-18T09:56:58;-10.73;77.09
73509;SHT30;61750;55.036;73.312;2022-12-18T09:59:35;-10.83;76.91
73509;SHT30;61750;55.036;73.312;2022-12-18T10:02:14;-10.99;76.73
73509;SHT30;61750;55.036;73.312;2022-12-18T10:04:40;-11.17;76.79
73509;SHT30;61750;55.036;73.312;2022-12-18T10:07:09;-11.26;77.46
73509;SHT30;61750;55.036;73.312;2022-12-18T10:09:49;-11.37;77.96
73509;SHT30;61750;55.036;73.312;2022-12-18T10:17:41;-11.71;79.30
73509;SHT30;61750;55.036;73.312;2022-12-18T10:27:58;-11.93;80.93
73509;SHT30;61750;55.036;73.312;2022-12-18T10:30:49;-12.05;81.11
73509;SHT30;61750;55.036;73.312;2022-12-18T10:33:17;-12.15;81.43
73509;SHT30;61750;55.036;73.312;2022-12-18T10:35:52;-12.25;81.46
73509;SHT30;61750;55.036;73.312;2022-12-18T10:38:30;-12.32;81.64
73509;SHT30;61750;55.036;73.312;2022-12-18T10:41:04;-12.39;81.96
73509;SHT30;61750;55.036;73.312;2022-12-18T10:43:40;-12.42;82.34
73509;SHT30;61750;55.036;73.312;2022-12-18T10:46:17;-12.46;82.55
73509;SHT30;61750;55.036;73.312;2022-12-18T10:51:37;-12.57;82.70
73509;SHT30;61750;55.036;73.312;2022-12-18T10:54:04;-12.59;82.75
73509;SHT30;61750;55.036;73.312;2022-12-18T10:56:31;-12.67;82.62
73509;SHT30;61750;55.036;73.312;2022-12-18T10:59:09;-12.77;82.40
73509;SHT30;61750;55.036;73.312;2022-12-18T11:01:54;-12.83;82.52
73509;SHT30;61750;55.036;73.312;2022-12-18T11:04:25;-12.84;82.58
73509;SHT30;61750;55.036;73.312;2022-12-18T11:07:02;-12.85;82.56
73509;SHT30;61750;55.036;73.312;2022-12-18T11:09:30;-12.84;82.52
73509;SHT30;61750;55.036;73.312;2022-12-18T11:12:18;-12.81;82.45
73509;SHT30;61750;55.036;73.312;2022-12-18T11:14:53;-12.83;82.14
73509;SHT30;61750;55.036;73.312;2022-12-18T11:17:29;-12.97;81.44
73509;SHT30;61750;55.036;73.312;2022-12-18T11:19:59;-13.08;80.79
73509;SHT30;61750;55.036;73.312;2022-12-18T11:22:31;-13.07;80.95
73509;SHT30;61750;55.036;73.312;2022-12-18T11:24:59;-13.01;81.34
73509;SHT30;61750;55.036;73.312;2022-12-18T11:27:25;-12.84;81.76
73509;SHT30;61750;55.036;73.312;2022-12-18T11:29:52;-12.74;81.63
73509;SHT30;61750;55.036;73.312;2022-12-18T11:32:31;-12.78;80.71
73509;SHT30;61750;55.036;73.312;2022-12-18T11:35:00;-12.75;80.10
73509;SHT30;61750;55.036;73.312;2022-12-18T11:37:27;-12.77;79.86
73509;SHT30;61750;55.036;73.312;2022-12-18T11:40:01;-12.75;79.87
73509;SHT30;61750;55.036;73.312;2022-12-18T11:42:45;-12.65;80.41
73509;SHT30;61750;55.036;73.312;2022-12-18T11:45:51;-12.52;80.61
73509;SHT30;61750;55.036;73.312;2022-12-18T11:51:25;-12.50;79.80
73509;SHT30;61750;55.036;73.312;2022-12-18T11:53:51;-12.53;79.33
73509;SHT30;61750;55.036;73.312;2022-12-18T11:56:39;-12.53;79.25
73509;SHT30;61750;55.036;73.312;2022-12-18T12:01:59;-12.49;79.67
73509;SHT30;61750;55.036;73.312;2022-12-18T12:04:38;-12.47;79.56
73509;SHT30;61750;55.036;73.312;2022-12-18T12:20:57;-12.25;78.80
73509;SHT30;61750;55.036;73.312;2022-12-18T12:26:11;-12.26;79.17
73509;SHT30;61750;55.036;73.312;2022-12-18T12:29:00;-12.32;78.88
73509;SHT30;61750;55.036;73.312;2022-12-18T12:31:31;-12.37;79.13
73509;SHT30;61750;55.036;73.312;2022-12-18T12:39:17;-12.37;80.12
73509;SHT30;61750;55.036;73.312;2022-12-18T12:41:44;-12.29;80.12
73509;SHT30;61750;55.036;73.312;2022-12-18T12:44:33;-12.25;79.73
73509;SHT30;61750;55.036;73.312;2022-12-18T12:47:00;-12.29;79.78
73509;SHT30;61750;55.036;73.312;2022-12-18T12:49:29;-12.26;79.82
73509;SHT30;61750;55.036;73.312;2022-12-18T12:52:04;-12.26;79.82
73509;SHT30;61750;55.036;73.312;2022-12-18T12:54:32;-12.23;79.85
73509;SHT30;61750;55.036;73.312;2022-12-18T12:57:01;-12.26;79.94
73509;SHT30;61750;55.036;73.312;2022-12-18T13:02:22;-12.25;79.99
73509;SHT30;61750;55.036;73.312;2022-12-18T13:10:49;-12.06;80.21
73509;SHT30;61750;55.036;73.312;2022-12-18T13:13:50;-12.05;80.00
73509;SHT30;61750;55.036;73.312;2022-12-18T13:16:21;-12.00;79.87
73509;SHT30;61750;55.036;73.312;2022-12-18T13:18:57;-11.99;80.01
73509;SHT30;61750;55.036;73.312;2022-12-18T13:21:31;-11.95;80.16
73509;SHT30;61750;55.036;73.312;2022-12-18T13:24:14;-12.05;79.90
73509;SHT30;61750;55.036;73.312;2022-12-18T13:26:45;-12.12;80.15
73509;SHT30;61750;55.036;73.312;2022-12-18T13:29:11;-12.12;80.29
73509;SHT30;61750;55.036;73.312;2022-12-18T13:31:57;-12.18;80.16
73509;SHT30;61750;55.036;73.312;2022-12-18T13:34:26;-12.19;80.45
73509;SHT30;61750;55.036;73.312;2022-12-18T13:37:43;-12.18;80.28
73509;SHT30;61750;55.036;73.312;2022-12-18T13:39:44;-12.18;80.37
73509;SHT30;61750;55.036;73.312;2022-12-18T13:44:57;-12.12;80.30
73509;SHT30;61750;55.036;73.312;2022-12-18T13:49:59;-12.15;79.98
73509;SHT30;61750;55.036;73.312;2022-12-18T13:52:36;-12.12;80.04
73509;SHT30;61750;55.036;73.312;2022-12-18T13:55:04;-12.06;80.01
73509;SHT30;61750;55.036;73.312;2022-12-18T13:57:32;-12.12;79.63
73509;SHT30;61750;55.036;73.312;2022-12-18T14:00:14;-12.13;79.64
73509;SHT30;61750;55.036;73.312;2022-12-18T14:02:47;-12.06;79.83
73509;SHT30;61750;55.036;73.312;2022-12-18T14:05:53;-12.13;79.55
73509;SHT30;61750;55.036;73.312;2022-12-18T14:08:20;-12.20;79.49
73509;SHT30;61750;55.036;73.312;2022-12-18T14:10:49;-12.20;79.51
73509;SHT30;61750;55.036;73.312;2022-12-18T14:13:23;-12.22;79.51
73509;SHT30;61750;55.036;73.312;2022-12-18T14:15:50;-12.20;79.53
73509;SHT30;61750;55.036;73.312;2022-12-18T14:20:50;-12.34;79.21
73509;SHT30;61750;55.036;73.312;2022-12-18T14:23:33;-12.36;79.27
73509;SHT30;61750;55.036;73.312;2022-12-18T14:26:17;-12.32;79.50
73509;SHT30;61750;55.036;73.312;2022-12-18T14:28:44;-12.29;79.53
73509;SHT30;61750;55.036;73.312;2022-12-18T14:31:18;-12.36;79.28
73509;SHT30;61750;55.036;73.312;2022-12-18T14:33:45;-12.33;79.45
73509;SHT30;61750;55.036;73.312;2022-12-18T14:36:13;-12.26;79.49
73509;SHT30;61750;55.036;73.312;2022-12-18T14:38:40;-12.32;79.07
73509;SHT30;61750;55.036;73.312;2022-12-18T14:41:10;-12.43;78.90
73509;SHT30;61750;55.036;73.312;2022-12-18T14:43:38;-12.44;79.30
73509;SHT30;61750;55.036;73.312;2022-12-18T14:46:05;-12.47;79.31
73509;SHT30;61750;55.036;73.312;2022-12-18T14:48:35;-12.40;79.39
73509;SHT30;61750;55.036;73.312;2022-12-18T14:51:15;-12.33;79.29
73509;SHT30;61750;55.036;73.312;2022-12-18T14:53:44;-12.32;78.95
73509;SHT30;61750;55.036;73.312;2022-12-18T14:56:16;-12.32;78.80
73509;SHT30;61750;55.036;73.312;2022-12-18T14:58:55;-12.32;78.58
73509;SHT30;61750;55.036;73.312;2022-12-18T15:01:23;-12.32;78.43
73509;SHT30;61750;55.036;73.312;2022-12-18T15:03:51;-12.30;78.60
73509;SHT30;61750;55.036;73.312;2022-12-18T15:06:18;-12.29;78.59
73509;SHT30;61750;55.036;73.312;2022-12-18T15:08:49;-12.32;78.60
73509;SHT30;61750;55.036;73.312;2022-12-18T15:11:28;-12.28;78.74
73509;SHT30;61750;55.036;73.312;2022-12-18T15:16:54;-12.42;78.79
73509;SHT30;61750;55.036;73.312;2022-12-18T15:19:39;-12.36;79.03
73509;SHT30;61750;55.036;73.312;2022-12-18T15:22:19;-12.39;78.79
73509;SHT30;61750;55.036;73.312;2022-12-18T15:24:46;-12.46;78.91
73509;SHT30;61750;55.036;73.312;2022-12-18T15:30:00;-12.43;79.32
73509;SHT30;61750;55.036;73.312;2022-12-18T15:32:26;-12.40;79.35
73509;SHT30;61750;55.036;73.312;2022-12-18T15:35:02;-12.37;79.30
73509;SHT30;61750;55.036;73.312;2022-12-18T15:37:33;-12.29;79.59
73509;SHT30;61750;55.036;73.312;2022-12-18T15:39:59;-12.33;79.42
73509;SHT30;61750;55.036;73.312;2022-12-18T15:42:25;-12.33;79.33
73509;SHT30;61750;55.036;73.312;2022-12-18T15:45:13;-12.34;79.48
73509;SHT30;61750;55.036;73.312;2022-12-18T15:47:40;-12.30;79.70
73509;SHT30;61750;55.036;73.312;2022-12-18T15:50:07;-12.29;79.44
73509;SHT30;61750;55.036;73.312;2022-12-18T15:52:47;-12.32;79.66
73509;SHT30;61750;55.036;73.312;2022-12-18T15:55:23;-12.20;80.12
73509;SHT30;61750;55.036;73.312;2022-12-18T15:58:17;-12.23;79.51
73509;SHT30;61750;55.036;73.312;2022-12-18T16:00:49;-12.23;79.56
73509;SHT30;61750;55.036;73.312;2022-12-18T16:03:20;-12.16;80.18
73509;SHT30;61750;55.036;73.312;2022-12-18T16:05:49;-12.22;79.71
73509;SHT30;61750;55.036;73.312;2022-12-18T16:08:15;-12.26;80.00
73509;SHT30;61750;55.036;73.312;2022-12-18T16:10:49;-12.25;80.15
73509;SHT30;61750;55.036;73.312;2022-12-18T16:13:15;-12.26;80.22
73509;SHT30;61750;55.036;73.312;2022-12-18T16:15:49;-12.25;80.50
73509;SHT30;61750;55.036;73.312;2022-12-18T16:18:20;-12.25;80.49
73509;SHT30;61750;55.036;73.312;2022-12-18T16:20:56;-12.13;80.73
73509;SHT30;61750;55.036;73.312;2022-12-18T16:23:28;-12.09;80.54
73509;SHT30;61750;55.036;73.312;2022-12-18T16:25:59;-12.05;80.47
73509;SHT30;61750;55.036;73.312;2022-12-18T16:28:25;-12.05;80.34
73509;SHT30;61750;55.036;73.312;2022-12-18T16:31:00;-12.00;80.69
73509;SHT30;61750;55.036;73.312;2022-12-18T16:33:26;-11.93;80.75
73509;SHT30;61750;55.036;73.312;2022-12-18T16:35:58;-11.88;80.75
73509;SHT30;61750;55.036;73.312;2022-12-18T16:38:29;-11.74;80.87
73509;SHT30;61750;55.036;73.312;2022-12-18T16:40:55;-11.72;80.37
73509;SHT30;61750;55.036;73.312;2022-12-18T16:43:39;-11.69;80.54
73509;SHT30;61750;55.036;73.312;2022-12-18T16:46:05;-11.64;80.48
73509;SHT30;61750;55.036;73.312;2022-12-18T16:48:34;-11.69;80.34
73509;SHT30;61750;55.036;73.312;2022-12-18T16:51:07;-11.55;80.92
73509;SHT30;61750;55.036;73.312;2022-12-18T16:53:33;-11.54;80.52
73509;SHT30;61750;55.036;73.312;2022-12-18T16:56:04;-11.50;80.89
73509;SHT30;61750;55.036;73.312;2022-12-18T16:58:35;-11.37;81.01
73509;SHT30;61750;55.036;73.312;2022-12-18T17:01:11;-11.31;80.96
73509;SHT30;61750;55.036;73.312;2022-12-18T17:03:37;-11.33;80.93
73509;SHT30;61750;55.036;73.312;2022-12-18T17:06:09;-11.21;81.11
73509;SHT30;61750;55.036;73.312;2022-12-18T17:08:35;-11.24;80.96
73509;SHT30;61750;55.036;73.312;2022-12-18T17:11:11;-11.21;81.17
73509;SHT30;61750;55.036;73.312;2022-12-18T17:13:46;-11.14;81.22
73509;SHT30;61750;55.036;73.312;2022-12-18T17:16:12;-11.10;81.09
73509;SHT30;61750;55.036;73.312;2022-12-18T17:18:38;-11.09;80.91
73509;SHT30;61750;55.036;73.312;2022-12-18T17:21:05;-11.06;80.89
73509;SHT30;61750;55.036;73.312;2022-12-18T17:23:42;-11.16;80.60
73509;SHT30;61750;55.036;73.312;2022-12-18T17:26:11;-11.14;80.71
73509;SHT30;61750;55.036;73.312;2022-12-18T17:28:42;-11.21;80.66
73509;SHT30;61750;55.036;73.312;2022-12-18T17:31:16;-11.16;81.05
73509;SHT30;61750;55.036;73.312;2022-12-18T17:33:42;-11.13;80.97